sensor_id;sensor_type;location;lat;lon;timestamp;P1;durP1;ratioP1;P2;durP2;ratioP2
9597;SDS011;4837;50.890;4.724;2023-07-31T00:02:25;12.13;;;4.85;;
9597;SDS011;4837;50.890;4.724;2023-07-31T00:04:51;7.75;;;4.30;;
9597;SDS011;4837;50.890;4.724;2023-07-31T00:07:17;9.38;;;4.70;;
9597;SDS011;4837;50.890;4.724;2023-07-31T00:09:43;13.27;;;4.75;;
9597;SDS011;4837;50.890;4.724;2023-07-31T00:12:09;7.63;;;3.92;;
9597;SDS011;4837;50.890;4.724;2023-07-31T00:14:35;12.20;;;4.57;;
9597;SDS011;4837;50.890;4.724;2023-07-31T00:17:01;10.57;;;4.88;;
9597;SDS011;4837;50.890;4.724;2023-07-31T00:19:27;13.25;;;4.78;;
9597;SDS011;4837;50.890;4.724;2023-07-31T00:21:54;10.57;;;4.90;;
9597;SDS011;4837;50.890;4.724;2023-07-31T00:24:20;12.80;;;4.30;;
9597;SDS011;4837;50.890;4.724;2023-07-31T00:26:46;11.45;;;4.60;;
9597;SDS011;4837;50.890;4.724;2023-07-31T00:29:12;13.07;;;4.80;;
9597;SDS011;4837;50.890;4.724;2023-07-31T00:31:38;10.43;;;4.82;;
9597;SDS011;4837;50.890;4.724;2023-07-31T00:34:04;10.75;;;5.22;;
9597;SDS011;4837;50.890;4.724;2023-07-31T00:36:31;12.48;;;5.00;;
9597;SDS011;4837;50.890;4.724;2023-07-31T00:38:57;12.43;;;4.72;;
9597;SDS011;4837;50.890;4.724;2023-07-31T00:41:23;10.98;;;4.50;;
9597;SDS011;4837;50.890;4.724;2023-07-31T00:43:49;10.70;;;4.75;;
9597;SDS011;4837;50.890;4.724;2023-07-31T00:46:15;9.40;;;4.60;;
9597;SDS011;4837;50.890;4.724;2023-07-31T00:48:41;9.23;;;4.90;;
9597;SDS011;4837;50.890;4.724;2023-07-31T00:51:08;10.65;;;4.80;;
9597;SDS011;4837;50.890;4.724;2023-07-31T00:53:35;10.57;;;4.68;;
9597;SDS011;4837;50.890;4.724;2023-07-31T00:56:01;12.25;;;5.03;;
9597;SDS011;4837;50.890;4.724;2023-07-31T00:58:27;14.50;;;4.55;;
9597;SDS011;4837;50.890;4.724;2023-07-31T01:00:53;10.15;;;4.80;;
9597;SDS011;4837;50.890;4.724;2023-07-31T01:03:19;11.25;;;4.55;;
9597;SDS011;4837;50.890;4.724;2023-07-31T01:05:51;12.52;;;4.70;;
9597;SDS011;4837;50.890;4.724;2023-07-31T01:11:10;9.20;;;4.55;;
9597;SDS011;4837;50.890;4.724;2023-07-31T01:13:38;9.52;;;4.32;;
9597;SDS011;4837;50.890;4.724;2023-07-31T01:16:05;10.27;;;4.78;;
9597;SDS011;4837;50.890;4.724;2023-07-31T01:18:31;10.75;;;4.97;;
9597;SDS011;4837;50.890;4.724;2023-07-31T01:21:06;12.48;;;4.97;;
9597;SDS011;4837;50.890;4.724;2023-07-31T01:23:46;11.23;;;4.85;;
9597;SDS011;4837;50.890;4.724;2023-07-31T01:26:21;10.30;;;4.60;;
9597;SDS011;4837;50.890;4.724;2023-07-31T01:28:55;8.68;;;4.50;;
9597;SDS011;4837;50.890;4.724;2023-07-31T01:31:23;10.27;;;4.45;;
9597;SDS011;4837;50.890;4.724;2023-07-31T01:33:53;10.35;;;4.97;;
9597;SDS011;4837;50.890;4.724;2023-07-31T01:36:20;10.00;;;4.65;;
9597;SDS011;4837;50.890;4.724;2023-07-31T01:38:46;9.25;;;4.63;;
9597;SDS011;4837;50.890;4.724;2023-07-31T01:41:13;10.52;;;4.57;;
9597;SDS011;4837;50.890;4.724;2023-07-31T01:43:39;8.98;;;4.18;;
9597;SDS011;4837;50.890;4.724;2023-07-31T01:46:05;9.38;;;4.85;;
9597;SDS011;4837;50.890;4.724;2023-07-31T01:48:31;11.27;;;4.35;;
9597;SDS011;4837;50.890;4.724;2023-07-31T01:51:00;9.57;;;4.43;;
9597;SDS011;4837;50.890;4.724;2023-07-31T01:53:27;10.10;;;4.65;;
9597;SDS011;4837;50.890;4.724;2023-07-31T01:55:53;8.57;;;4.45;;
9597;SDS011;4837;50.890;4.724;2023-07-31T01:58:19;11.25;;;4.30;;
9597;SDS011;4837;50.890;4.724;2023-07-31T02:00:45;8.60;;;4.90;;
9597;SDS011;4837;50.890;4.724;2023-07-31T02:03:11;9.05;;;4.72;;
9597;SDS011;4837;50.890;4.724;2023-07-31T02:05:47;9.10;;;4.43;;
9597;SDS011;4837;50.890;4.724;2023-07-31T02:08:13;9.70;;;4.40;;
9597;SDS011;4837;50.890;4.724;2023-07-31T02:10:40;9.77;;;4.40;;
9597;SDS011;4837;50.890;4.724;2023-07-31T02:13:06;10.40;;;4.85;;
9597;SDS011;4837;50.890;4.724;2023-07-31T02:15:32;11.95;;;4.60;;
9597;SDS011;4837;50.890;4.724;2023-07-31T02:17:58;13.02;;;5.22;;
9597;SDS011;4837;50.890;4.724;2023-07-31T02:20:24;11.52;;;5.40;;
9597;SDS011;4837;50.890;4.724;2023-07-31T02:22:51;9.80;;;4.38;;
9597;SDS011;4837;50.890;4.724;2023-07-31T02:25:17;10.43;;;4.88;;
9597;SDS011;4837;50.890;4.724;2023-07-31T02:27:43;10.07;;;5.22;;
9597;SDS011;4837;50.890;4.724;2023-07-31T02:30:09;8.18;;;4.82;;
9597;SDS011;4837;50.890;4.724;2023-07-31T02:32:36;11.70;;;5.25;;
9597;SDS011;4837;50.890;4.724;2023-07-31T02:35:02;8.93;;;4.78;;
9597;SDS011;4837;50.890;4.724;2023-07-31T02:37:28;9.20;;;4.97;;
9597;SDS011;4837;50.890;4.724;2023-07-31T02:39:54;12.45;;;4.90;;
9597;SDS011;4837;50.890;4.724;2023-07-31T02:42:21;11.43;;;5.30;;
9597;SDS011;4837;50.890;4.724;2023-07-31T02:44:47;9.85;;;4.85;;
9597;SDS011;4837;50.890;4.724;2023-07-31T02:47:13;8.38;;;4.88;;
9597;SDS011;4837;50.890;4.724;2023-07-31T02:49:39;9.93;;;4.57;;
9597;SDS011;4837;50.890;4.724;2023-07-31T02:52:06;9.65;;;4.35;;
9597;SDS011;4837;50.890;4.724;2023-07-31T02:54:32;8.52;;;4.50;;
9597;SDS011;4837;50.890;4.724;2023-07-31T02:56:58;7.10;;;4.53;;
9597;SDS011;4837;50.890;4.724;2023-07-31T02:59:24;9.07;;;4.85;;
9597;SDS011;4837;50.890;4.724;2023-07-31T03:01:50;8.38;;;4.55;;
9597;SDS011;4837;50.890;4.724;2023-07-31T03:04:16;9.27;;;4.97;;
9597;SDS011;4837;50.890;4.724;2023-07-31T03:06:42;7.65;;;4.00;;
9597;SDS011;4837;50.890;4.724;2023-07-31T03:09:08;9.65;;;4.93;;
9597;SDS011;4837;50.890;4.724;2023-07-31T03:11:35;9.45;;;4.60;;
9597;SDS011;4837;50.890;4.724;2023-07-31T03:14:01;7.78;;;4.43;;
9597;SDS011;4837;50.890;4.724;2023-07-31T03:16:27;7.03;;;4.53;;
9597;SDS011;4837;50.890;4.724;2023-07-31T03:18:53;11.43;;;4.78;;
9597;SDS011;4837;50.890;4.724;2023-07-31T03:21:20;6.28;;;4.53;;
9597;SDS011;4837;50.890;4.724;2023-07-31T03:23:46;6.05;;;4.35;;
9597;SDS011;4837;50.890;4.724;2023-07-31T03:26:12;9.98;;;4.18;;
9597;SDS011;4837;50.890;4.724;2023-07-31T03:28:38;11.57;;;4.72;;
9597;SDS011;4837;50.890;4.724;2023-07-31T03:31:05;7.65;;;4.38;;
9597;SDS011;4837;50.890;4.724;2023-07-31T03:33:31;6.05;;;4.22;;
9597;SDS011;4837;50.890;4.724;2023-07-31T03:35:57;8.00;;;4.15;;
9597;SDS011;4837;50.890;4.724;2023-07-31T03:38:23;8.00;;;4.10;;
9597;SDS011;4837;50.890;4.724;2023-07-31T03:40:49;7.28;;;4.13;;
9597;SDS011;4837;50.890;4.724;2023-07-31T03:43:15;5.22;;;3.88;;
9597;SDS011;4837;50.890;4.724;2023-07-31T03:45:41;7.30;;;4.53;;
9597;SDS011;4837;50.890;4.724;2023-07-31T03:48:08;8.43;;;4.10;;
9597;SDS011;4837;50.890;4.724;2023-07-31T03:50:34;7.25;;;4.00;;
9597;SDS011;4837;50.890;4.724;2023-07-31T03:53:00;6.22;;;3.97;;
9597;SDS011;4837;50.890;4.724;2023-07-31T03:55:26;7.55;;;4.20;;
9597;SDS011;4837;50.890;4.724;2023-07-31T03:57:52;7.97;;;4.40;;
9597;SDS011;4837;50.890;4.724;2023-07-31T04:00:19;6.82;;;4.18;;
9597;SDS011;4837;50.890;4.724;2023-07-31T04:02:46;7.82;;;3.90;;
9597;SDS011;4837;50.890;4.724;2023-07-31T04:05:12;7.43;;;4.20;;
9597;SDS011;4837;50.890;4.724;2023-07-31T04:07:38;6.18;;;3.92;;
9597;SDS011;4837;50.890;4.724;2023-07-31T04:10:05;8.75;;;4.35;;
9597;SDS011;4837;50.890;4.724;2023-07-31T04:12:31;9.88;;;4.38;;
9597;SDS011;4837;50.890;4.724;2023-07-31T04:14:57;6.65;;;4.75;;
9597;SDS011;4837;50.890;4.724;2023-07-31T04:17:23;8.65;;;4.43;;
9597;SDS011;4837;50.890;4.724;2023-07-31T04:19:49;7.70;;;4.13;;
9597;SDS011;4837;50.890;4.724;2023-07-31T04:22:16;9.40;;;4.30;;
9597;SDS011;4837;50.890;4.724;2023-07-31T04:24:42;7.18;;;4.65;;
9597;SDS011;4837;50.890;4.724;2023-07-31T04:27:08;8.20;;;4.47;;
9597;SDS011;4837;50.890;4.724;2023-07-31T04:29:34;8.65;;;4.32;;
9597;SDS011;4837;50.890;4.724;2023-07-31T04:32:00;5.78;;;4.72;;
9597;SDS011;4837;50.890;4.724;2023-07-31T04:34:26;10.70;;;4.75;;
9597;SDS011;4837;50.890;4.724;2023-07-31T04:36:52;7.57;;;5.45;;
9597;SDS011;4837;50.890;4.724;2023-07-31T04:39:19;7.68;;;4.10;;
9597;SDS011;4837;50.890;4.724;2023-07-31T04:41:45;6.45;;;3.85;;
9597;SDS011;4837;50.890;4.724;2023-07-31T04:44:11;7.28;;;4.20;;
9597;SDS011;4837;50.890;4.724;2023-07-31T04:46:37;5.85;;;4.30;;
9597;SDS011;4837;50.890;4.724;2023-07-31T04:49:03;6.20;;;4.03;;
9597;SDS011;4837;50.890;4.724;2023-07-31T04:51:29;6.90;;;4.50;;
9597;SDS011;4837;50.890;4.724;2023-07-31T04:53:56;6.85;;;4.15;;
9597;SDS011;4837;50.890;4.724;2023-07-31T04:56:22;7.15;;;4.65;;
9597;SDS011;4837;50.890;4.724;2023-07-31T04:58:48;8.40;;;4.35;;
9597;SDS011;4837;50.890;4.724;2023-07-31T05:01:14;7.13;;;3.85;;
9597;SDS011;4837;50.890;4.724;2023-07-31T05:03:40;7.72;;;4.47;;
9597;SDS011;4837;50.890;4.724;2023-07-31T05:06:06;9.25;;;4.18;;
9597;SDS011;4837;50.890;4.724;2023-07-31T05:08:32;8.52;;;4.03;;
9597;SDS011;4837;50.890;4.724;2023-07-31T05:10:58;8.32;;;4.32;;
9597;SDS011;4837;50.890;4.724;2023-07-31T05:13:25;8.18;;;3.92;;
9597;SDS011;4837;50.890;4.724;2023-07-31T05:15:51;7.22;;;4.20;;
9597;SDS011;4837;50.890;4.724;2023-07-31T05:18:17;5.97;;;3.83;;
9597;SDS011;4837;50.890;4.724;2023-07-31T05:20:43;9.85;;;4.18;;
9597;SDS011;4837;50.890;4.724;2023-07-31T05:23:09;6.20;;;3.92;;
9597;SDS011;4837;50.890;4.724;2023-07-31T05:25:35;9.77;;;4.30;;
9597;SDS011;4837;50.890;4.724;2023-07-31T05:28:02;5.85;;;3.92;;
9597;SDS011;4837;50.890;4.724;2023-07-31T05:30:29;9.30;;;3.92;;
9597;SDS011;4837;50.890;4.724;2023-07-31T05:32:56;5.35;;;4.10;;
9597;SDS011;4837;50.890;4.724;2023-07-31T05:35:22;9.80;;;3.72;;
9597;SDS011;4837;50.890;4.724;2023-07-31T05:37:48;7.30;;;3.88;;
9597;SDS011;4837;50.890;4.724;2023-07-31T05:40:14;7.43;;;3.88;;
9597;SDS011;4837;50.890;4.724;2023-07-31T05:42:41;6.68;;;3.90;;
9597;SDS011;4837;50.890;4.724;2023-07-31T05:45:07;8.85;;;4.35;;
9597;SDS011;4837;50.890;4.724;2023-07-31T05:47:33;6.80;;;4.10;;
9597;SDS011;4837;50.890;4.724;2023-07-31T05:49:59;8.65;;;3.92;;
9597;SDS011;4837;50.890;4.724;2023-07-31T05:52:25;5.03;;;3.78;;
9597;SDS011;4837;50.890;4.724;2023-07-31T05:54:54;6.40;;;4.03;;
9597;SDS011;4837;50.890;4.724;2023-07-31T05:57:20;6.07;;;4.05;;
9597;SDS011;4837;50.890;4.724;2023-07-31T05:59:46;5.85;;;3.97;;
9597;SDS011;4837;50.890;4.724;2023-07-31T06:02:12;7.22;;;4.03;;
9597;SDS011;4837;50.890;4.724;2023-07-31T06:04:38;7.45;;;4.05;;
9597;SDS011;4837;50.890;4.724;2023-07-31T06:07:05;5.47;;;4.15;;
9597;SDS011;4837;50.890;4.724;2023-07-31T06:09:31;6.53;;;3.80;;
9597;SDS011;4837;50.890;4.724;2023-07-31T06:11:57;5.47;;;3.70;;
9597;SDS011;4837;50.890;4.724;2023-07-31T06:14:23;5.30;;;3.85;;
9597;SDS011;4837;50.890;4.724;2023-07-31T06:16:50;5.93;;;3.83;;
9597;SDS011;4837;50.890;4.724;2023-07-31T06:19:16;8.23;;;4.25;;
9597;SDS011;4837;50.890;4.724;2023-07-31T06:21:42;6.85;;;3.97;;
9597;SDS011;4837;50.890;4.724;2023-07-31T06:24:09;7.25;;;4.10;;
9597;SDS011;4837;50.890;4.724;2023-07-31T06:26:37;6.25;;;3.95;;
9597;SDS011;4837;50.890;4.724;2023-07-31T06:29:03;6.15;;;4.00;;
9597;SDS011;4837;50.890;4.724;2023-07-31T06:31:29;9.75;;;3.90;;
9597;SDS011;4837;50.890;4.724;2023-07-31T06:33:55;9.40;;;3.97;;
9597;SDS011;4837;50.890;4.724;2023-07-31T06:36:21;5.43;;;3.75;;
9597;SDS011;4837;50.890;4.724;2023-07-31T06:38:48;7.80;;;4.32;;
9597;SDS011;4837;50.890;4.724;2023-07-31T06:41:14;5.65;;;3.78;;
9597;SDS011;4837;50.890;4.724;2023-07-31T06:43:40;6.38;;;3.92;;
9597;SDS011;4837;50.890;4.724;2023-07-31T06:46:06;8.43;;;4.30;;
9597;SDS011;4837;50.890;4.724;2023-07-31T06:48:33;7.05;;;3.83;;
9597;SDS011;4837;50.890;4.724;2023-07-31T06:51:00;6.57;;;3.50;;
9597;SDS011;4837;50.890;4.724;2023-07-31T06:53:26;5.97;;;3.40;;
9597;SDS011;4837;50.890;4.724;2023-07-31T06:55:52;7.45;;;4.10;;
9597;SDS011;4837;50.890;4.724;2023-07-31T06:58:18;5.55;;;3.53;;
9597;SDS011;4837;50.890;4.724;2023-07-31T07:00:44;8.93;;;3.83;;
9597;SDS011;4837;50.890;4.724;2023-07-31T07:03:11;6.47;;;3.95;;
9597;SDS011;4837;50.890;4.724;2023-07-31T07:05:39;4.82;;;3.78;;
9597;SDS011;4837;50.890;4.724;2023-07-31T07:08:06;5.53;;;3.42;;
9597;SDS011;4837;50.890;4.724;2023-07-31T07:10:32;8.55;;;3.30;;
9597;SDS011;4837;50.890;4.724;2023-07-31T07:12:58;7.47;;;3.42;;
9597;SDS011;4837;50.890;4.724;2023-07-31T07:15:24;6.80;;;3.45;;
9597;SDS011;4837;50.890;4.724;2023-07-31T07:17:50;7.85;;;3.65;;
9597;SDS011;4837;50.890;4.724;2023-07-31T07:20:16;5.65;;;3.40;;
9597;SDS011;4837;50.890;4.724;2023-07-31T07:22:44;5.70;;;3.25;;
9597;SDS011;4837;50.890;4.724;2023-07-31T07:25:10;6.97;;;3.60;;
9597;SDS011;4837;50.890;4.724;2023-07-31T07:27:36;8.88;;;3.60;;
9597;SDS011;4837;50.890;4.724;2023-07-31T07:30:02;8.15;;;3.42;;
9597;SDS011;4837;50.890;4.724;2023-07-31T07:32:28;7.65;;;3.42;;
9597;SDS011;4837;50.890;4.724;2023-07-31T07:34:55;8.02;;;3.53;;
9597;SDS011;4837;50.890;4.724;2023-07-31T07:37:21;6.32;;;3.50;;
9597;SDS011;4837;50.890;4.724;2023-07-31T07:39:48;7.30;;;3.63;;
9597;SDS011;4837;50.890;4.724;2023-07-31T07:42:14;5.72;;;3.20;;
9597;SDS011;4837;50.890;4.724;2023-07-31T07:44:40;5.60;;;3.50;;
9597;SDS011;4837;50.890;4.724;2023-07-31T07:47:06;5.25;;;2.88;;
9597;SDS011;4837;50.890;4.724;2023-07-31T07:49:34;8.13;;;3.10;;
9597;SDS011;4837;50.890;4.724;2023-07-31T07:52:00;8.27;;;3.78;;
9597;SDS011;4837;50.890;4.724;2023-07-31T07:54:27;8.85;;;3.22;;
9597;SDS011;4837;50.890;4.724;2023-07-31T07:56:53;5.88;;;3.67;;
9597;SDS011;4837;50.890;4.724;2023-07-31T07:59:19;6.90;;;3.20;;
9597;SDS011;4837;50.890;4.724;2023-07-31T08:01:45;7.57;;;3.13;;
9597;SDS011;4837;50.890;4.724;2023-07-31T08:04:12;6.68;;;2.88;;
9597;SDS011;4837;50.890;4.724;2023-07-31T08:06:38;7.38;;;3.47;;
9597;SDS011;4837;50.890;4.724;2023-07-31T08:09:04;5.13;;;3.30;;
9597;SDS011;4837;50.890;4.724;2023-07-31T08:11:34;6.63;;;3.30;;
9597;SDS011;4837;50.890;4.724;2023-07-31T08:14:01;7.68;;;3.20;;
9597;SDS011;4837;50.890;4.724;2023-07-31T08:16:27;6.03;;;3.30;;
9597;SDS011;4837;50.890;4.724;2023-07-31T08:18:53;5.43;;;3.25;;
9597;SDS011;4837;50.890;4.724;2023-07-31T08:21:20;4.57;;;2.88;;
9597;SDS011;4837;50.890;4.724;2023-07-31T08:23:46;5.63;;;3.13;;
9597;SDS011;4837;50.890;4.724;2023-07-31T08:26:16;5.13;;;3.10;;
9597;SDS011;4837;50.890;4.724;2023-07-31T08:28:43;4.20;;;3.08;;
9597;SDS011;4837;50.890;4.724;2023-07-31T08:31:09;6.63;;;2.88;;
9597;SDS011;4837;50.890;4.724;2023-07-31T08:33:35;6.57;;;3.22;;
9597;SDS011;4837;50.890;4.724;2023-07-31T08:36:02;3.83;;;3.10;;
9597;SDS011;4837;50.890;4.724;2023-07-31T08:38:29;4.80;;;3.03;;
9597;SDS011;4837;50.890;4.724;2023-07-31T08:40:58;4.25;;;3.05;;
9597;SDS011;4837;50.890;4.724;2023-07-31T08:43:27;8.30;;;3.35;;
9597;SDS011;4837;50.890;4.724;2023-07-31T08:45:53;5.18;;;3.05;;
9597;SDS011;4837;50.890;4.724;2023-07-31T08:48:21;8.35;;;3.00;;
9597;SDS011;4837;50.890;4.724;2023-07-31T08:50:48;5.13;;;3.30;;
9597;SDS011;4837;50.890;4.724;2023-07-31T08:53:14;4.45;;;2.53;;
9597;SDS011;4837;50.890;4.724;2023-07-31T08:55:41;2.92;;;2.22;;
9597;SDS011;4837;50.890;4.724;2023-07-31T08:58:08;3.75;;;2.53;;
9597;SDS011;4837;50.890;4.724;2023-07-31T09:00:35;4.93;;;2.75;;
9597;SDS011;4837;50.890;4.724;2023-07-31T09:03:02;5.43;;;2.60;;
9597;SDS011;4837;50.890;4.724;2023-07-31T09:05:30;6.47;;;2.80;;
9597;SDS011;4837;50.890;4.724;2023-07-31T09:07:56;4.40;;;2.60;;
9597;SDS011;4837;50.890;4.724;2023-07-31T09:10:22;5.28;;;2.63;;
9597;SDS011;4837;50.890;4.724;2023-07-31T09:12:49;3.90;;;2.65;;
9597;SDS011;4837;50.890;4.724;2023-07-31T09:15:16;5.13;;;2.45;;
9597;SDS011;4837;50.890;4.724;2023-07-31T09:17:43;5.35;;;2.78;;
9597;SDS011;4837;50.890;4.724;2023-07-31T09:20:19;6.28;;;2.63;;
9597;SDS011;4837;50.890;4.724;2023-07-31T09:22:46;5.70;;;2.70;;
9597;SDS011;4837;50.890;4.724;2023-07-31T09:25:19;5.18;;;2.78;;
9597;SDS011;4837;50.890;4.724;2023-07-31T09:27:50;3.78;;;2.70;;
9597;SDS011;4837;50.890;4.724;2023-07-31T09:30:16;5.60;;;2.72;;
9597;SDS011;4837;50.890;4.724;2023-07-31T09:32:44;5.97;;;2.75;;
9597;SDS011;4837;50.890;4.724;2023-07-31T09:37:39;3.65;;;2.55;;
9597;SDS011;4837;50.890;4.724;2023-07-31T09:40:05;4.45;;;2.78;;
9597;SDS011;4837;50.890;4.724;2023-07-31T09:42:31;5.82;;;3.25;;
9597;SDS011;4837;50.890;4.724;2023-07-31T09:45:09;4.53;;;2.83;;
9597;SDS011;4837;50.890;4.724;2023-07-31T09:47:35;4.95;;;2.60;;
9597;SDS011;4837;50.890;4.724;2023-07-31T09:50:04;5.60;;;3.05;;
9597;SDS011;4837;50.890;4.724;2023-07-31T09:52:33;5.55;;;2.83;;
9597;SDS011;4837;50.890;4.724;2023-07-31T09:54:59;7.95;;;3.50;;
9597;SDS011;4837;50.890;4.724;2023-07-31T09:57:25;7.45;;;3.15;;
9597;SDS011;4837;50.890;4.724;2023-07-31T09:59:52;6.07;;;3.20;;
9597;SDS011;4837;50.890;4.724;2023-07-31T10:02:21;4.60;;;2.92;;
9597;SDS011;4837;50.890;4.724;2023-07-31T10:04:51;8.75;;;2.95;;
9597;SDS011;4837;50.890;4.724;2023-07-31T10:07:18;4.88;;;3.03;;
9597;SDS011;4837;50.890;4.724;2023-07-31T10:09:44;5.72;;;3.03;;
9597;SDS011;4837;50.890;4.724;2023-07-31T10:12:11;8.90;;;3.58;;
9597;SDS011;4837;50.890;4.724;2023-07-31T10:14:38;6.18;;;3.50;;
9597;SDS011;4837;50.890;4.724;2023-07-31T10:17:05;5.22;;;3.50;;
9597;SDS011;4837;50.890;4.724;2023-07-31T10:19:31;4.07;;;3.33;;
9597;SDS011;4837;50.890;4.724;2023-07-31T10:22:00;6.35;;;3.60;;
9597;SDS011;4837;50.890;4.724;2023-07-31T10:24:28;6.97;;;4.00;;
9597;SDS011;4837;50.890;4.724;2023-07-31T10:26:55;6.80;;;4.03;;
9597;SDS011;4837;50.890;4.724;2023-07-31T10:29:23;5.70;;;3.63;;
9597;SDS011;4837;50.890;4.724;2023-07-31T10:31:50;7.07;;;3.70;;
9597;SDS011;4837;50.890;4.724;2023-07-31T10:34:16;7.28;;;3.90;;
9597;SDS011;4837;50.890;4.724;2023-07-31T10:36:43;4.88;;;3.40;;
9597;SDS011;4837;50.890;4.724;2023-07-31T10:39:51;7.47;;;3.90;;
9597;SDS011;4837;50.890;4.724;2023-07-31T10:41:58;8.38;;;3.95;;
9597;SDS011;4837;50.890;4.724;2023-07-31T10:44:24;7.72;;;3.95;;
9597;SDS011;4837;50.890;4.724;2023-07-31T10:46:54;6.80;;;3.60;;
9597;SDS011;4837;50.890;4.724;2023-07-31T10:49:21;9.05;;;4.47;;
9597;SDS011;4837;50.890;4.724;2023-07-31T10:51:47;7.05;;;3.97;;
9597;SDS011;4837;50.890;4.724;2023-07-31T10:54:14;6.70;;;3.95;;
9597;SDS011;4837;50.890;4.724;2023-07-31T10:56:46;8.10;;;3.85;;
9597;SDS011;4837;50.890;4.724;2023-07-31T10:59:13;6.38;;;4.07;;
9597;SDS011;4837;50.890;4.724;2023-07-31T11:01:52;5.68;;;3.67;;
9597;SDS011;4837;50.890;4.724;2023-07-31T11:04:25;6.43;;;4.00;;
9597;SDS011;4837;50.890;4.724;2023-07-31T11:06:55;5.07;;;3.75;;
9597;SDS011;4837;50.890;4.724;2023-07-31T11:09:24;6.78;;;4.10;;
9597;SDS011;4837;50.890;4.724;2023-07-31T11:11:50;8.02;;;4.18;;
9597;SDS011;4837;50.890;4.724;2023-07-31T11:14:17;7.40;;;4.00;;
9597;SDS011;4837;50.890;4.724;2023-07-31T11:16:43;8.82;;;4.22;;
9597;SDS011;4837;50.890;4.724;2023-07-31T11:19:10;7.75;;;4.07;;
9597;SDS011;4837;50.890;4.724;2023-07-31T11:21:36;5.00;;;3.53;;
9597;SDS011;4837;50.890;4.724;2023-07-31T11:24:02;8.32;;;4.47;;
9597;SDS011;4837;50.890;4.724;2023-07-31T11:26:30;5.68;;;4.25;;
9597;SDS011;4837;50.890;4.724;2023-07-31T11:28:56;6.30;;;3.85;;
9597;SDS011;4837;50.890;4.724;2023-07-31T11:31:22;9.40;;;3.78;;
9597;SDS011;4837;50.890;4.724;2023-07-31T11:33:48;6.90;;;3.83;;
9597;SDS011;4837;50.890;4.724;2023-07-31T11:36:18;7.30;;;3.95;;
9597;SDS011;4837;50.890;4.724;2023-07-31T11:38:44;8.07;;;4.43;;
9597;SDS011;4837;50.890;4.724;2023-07-31T11:41:13;8.10;;;4.38;;
9597;SDS011;4837;50.890;4.724;2023-07-31T11:43:39;9.43;;;4.35;;
9597;SDS011;4837;50.890;4.724;2023-07-31T11:46:05;8.70;;;4.05;;
9597;SDS011;4837;50.890;4.724;2023-07-31T11:48:34;7.25;;;3.97;;
9597;SDS011;4837;50.890;4.724;2023-07-31T11:51:08;5.97;;;4.07;;
9597;SDS011;4837;50.890;4.724;2023-07-31T11:56:02;6.35;;;3.58;;
9597;SDS011;4837;50.890;4.724;2023-07-31T11:58:31;9.07;;;3.83;;
9597;SDS011;4837;50.890;4.724;2023-07-31T12:00:58;7.28;;;3.83;;
9597;SDS011;4837;50.890;4.724;2023-07-31T12:03:25;5.13;;;3.80;;
9597;SDS011;4837;50.890;4.724;2023-07-31T12:05:52;5.88;;;3.78;;
9597;SDS011;4837;50.890;4.724;2023-07-31T12:08:20;7.65;;;3.55;;
9597;SDS011;4837;50.890;4.724;2023-07-31T12:10:46;5.55;;;3.70;;
9597;SDS011;4837;50.890;4.724;2023-07-31T12:13:23;9.35;;;4.35;;
9597;SDS011;4837;50.890;4.724;2023-07-31T12:15:53;7.38;;;4.00;;
9597;SDS011;4837;50.890;4.724;2023-07-31T12:18:20;5.70;;;3.95;;
9597;SDS011;4837;50.890;4.724;2023-07-31T12:20:48;6.28;;;3.63;;
9597;SDS011;4837;50.890;4.724;2023-07-31T12:23:15;6.35;;;3.65;;
9597;SDS011;4837;50.890;4.724;2023-07-31T12:25:42;7.30;;;3.58;;
9597;SDS011;4837;50.890;4.724;2023-07-31T12:28:08;7.85;;;3.85;;
9597;SDS011;4837;50.890;4.724;2023-07-31T12:30:38;6.97;;;3.95;;
9597;SDS011;4837;50.890;4.724;2023-07-31T12:33:14;5.88;;;3.55;;
9597;SDS011;4837;50.890;4.724;2023-07-31T12:35:42;5.93;;;4.13;;
9597;SDS011;4837;50.890;4.724;2023-07-31T12:38:09;6.57;;;4.07;;
9597;SDS011;4837;50.890;4.724;2023-07-31T12:40:37;7.03;;;3.70;;
9597;SDS011;4837;50.890;4.724;2023-07-31T12:43:04;7.75;;;4.47;;
9597;SDS011;4837;50.890;4.724;2023-07-31T12:45:30;7.03;;;4.05;;
9597;SDS011;4837;50.890;4.724;2023-07-31T12:47:57;6.53;;;4.03;;
9597;SDS011;4837;50.890;4.724;2023-07-31T12:50:23;6.30;;;4.05;;
9597;SDS011;4837;50.890;4.724;2023-07-31T12:52:50;9.45;;;4.03;;
9597;SDS011;4837;50.890;4.724;2023-07-31T12:55:16;7.32;;;4.03;;
9597;SDS011;4837;50.890;4.724;2023-07-31T12:57:43;6.32;;;4.03;;
9597;SDS011;4837;50.890;4.724;2023-07-31T13:00:10;8.55;;;3.53;;
9597;SDS011;4837;50.890;4.724;2023-07-31T13:02:36;7.25;;;3.85;;
9597;SDS011;4837;50.890;4.724;2023-07-31T13:05:02;9.05;;;4.20;;
9597;SDS011;4837;50.890;4.724;2023-07-31T13:07:28;7.18;;;3.65;;
9597;SDS011;4837;50.890;4.724;2023-07-31T13:09:54;10.35;;;4.72;;
9597;SDS011;4837;50.890;4.724;2023-07-31T13:12:20;5.07;;;3.85;;
9597;SDS011;4837;50.890;4.724;2023-07-31T13:14:46;7.95;;;4.50;;
9597;SDS011;4837;50.890;4.724;2023-07-31T13:17:13;7.95;;;4.55;;
9597;SDS011;4837;50.890;4.724;2023-07-31T13:19:39;6.38;;;4.35;;
9597;SDS011;4837;50.890;4.724;2023-07-31T13:22:05;8.88;;;4.15;;
9597;SDS011;4837;50.890;4.724;2023-07-31T13:24:31;7.47;;;4.60;;
9597;SDS011;4837;50.890;4.724;2023-07-31T13:26:57;9.10;;;4.32;;
9597;SDS011;4837;50.890;4.724;2023-07-31T13:29:23;9.80;;;4.30;;
9597;SDS011;4837;50.890;4.724;2023-07-31T13:31:50;6.78;;;4.40;;
9597;SDS011;4837;50.890;4.724;2023-07-31T13:34:16;9.00;;;4.15;;
9597;SDS011;4837;50.890;4.724;2023-07-31T13:36:42;7.80;;;3.75;;
9597;SDS011;4837;50.890;4.724;2023-07-31T13:39:09;6.35;;;3.67;;
9597;SDS011;4837;50.890;4.724;2023-07-31T13:41:35;6.20;;;3.45;;
9597;SDS011;4837;50.890;4.724;2023-07-31T13:44:01;7.45;;;3.78;;
9597;SDS011;4837;50.890;4.724;2023-07-31T13:46:27;7.15;;;3.55;;
9597;SDS011;4837;50.890;4.724;2023-07-31T13:48:53;7.93;;;4.05;;
9597;SDS011;4837;50.890;4.724;2023-07-31T13:51:21;5.63;;;3.42;;
9597;SDS011;4837;50.890;4.724;2023-07-31T13:53:47;6.57;;;3.42;;
9597;SDS011;4837;50.890;4.724;2023-07-31T13:56:13;5.88;;;3.58;;
9597;SDS011;4837;50.890;4.724;2023-07-31T13:58:39;7.53;;;3.58;;
9597;SDS011;4837;50.890;4.724;2023-07-31T14:01:06;6.15;;;3.60;;
9597;SDS011;4837;50.890;4.724;2023-07-31T14:03:32;7.82;;;3.30;;
9597;SDS011;4837;50.890;4.724;2023-07-31T14:05:58;7.05;;;3.63;;
9597;SDS011;4837;50.890;4.724;2023-07-31T14:08:24;9.30;;;3.50;;
9597;SDS011;4837;50.890;4.724;2023-07-31T14:10:50;4.35;;;3.15;;
9597;SDS011;4837;50.890;4.724;2023-07-31T14:13:16;4.80;;;3.05;;
9597;SDS011;4837;50.890;4.724;2023-07-31T14:15:43;5.75;;;2.97;;
9597;SDS011;4837;50.890;4.724;2023-07-31T14:18:09;4.28;;;3.08;;
9597;SDS011;4837;50.890;4.724;2023-07-31T14:20:35;5.32;;;3.05;;
9597;SDS011;4837;50.890;4.724;2023-07-31T14:23:02;3.70;;;2.80;;
9597;SDS011;4837;50.890;4.724;2023-07-31T14:25:28;5.03;;;3.05;;
9597;SDS011;4837;50.890;4.724;2023-07-31T14:27:54;4.20;;;3.00;;
9597;SDS011;4837;50.890;4.724;2023-07-31T14:30:20;7.50;;;3.35;;
9597;SDS011;4837;50.890;4.724;2023-07-31T14:32:47;6.35;;;3.25;;
9597;SDS011;4837;50.890;4.724;2023-07-31T14:35:13;7.07;;;3.30;;
9597;SDS011;4837;50.890;4.724;2023-07-31T14:37:43;4.47;;;2.72;;
9597;SDS011;4837;50.890;4.724;2023-07-31T14:40:10;6.35;;;2.72;;
9597;SDS011;4837;50.890;4.724;2023-07-31T14:42:36;5.88;;;3.00;;
9597;SDS011;4837;50.890;4.724;2023-07-31T14:45:03;5.85;;;2.95;;
9597;SDS011;4837;50.890;4.724;2023-07-31T14:47:29;4.65;;;3.03;;
9597;SDS011;4837;50.890;4.724;2023-07-31T14:49:59;4.50;;;3.13;;
9597;SDS011;4837;50.890;4.724;2023-07-31T14:52:25;6.03;;;2.80;;
9597;SDS011;4837;50.890;4.724;2023-07-31T14:54:52;3.83;;;3.00;;
9597;SDS011;4837;50.890;4.724;2023-07-31T14:57:18;5.65;;;3.47;;
9597;SDS011;4837;50.890;4.724;2023-07-31T14:59:45;4.82;;;3.40;;
9597;SDS011;4837;50.890;4.724;2023-07-31T15:02:11;6.75;;;2.70;;
9597;SDS011;4837;50.890;4.724;2023-07-31T15:04:37;4.80;;;2.72;;
9597;SDS011;4837;50.890;4.724;2023-07-31T15:07:04;8.18;;;2.70;;
9597;SDS011;4837;50.890;4.724;2023-07-31T15:09:30;4.25;;;2.55;;
9597;SDS011;4837;50.890;4.724;2023-07-31T15:11:56;3.65;;;2.35;;
9597;SDS011;4837;50.890;4.724;2023-07-31T15:14:23;3.67;;;2.53;;
9597;SDS011;4837;50.890;4.724;2023-07-31T15:16:49;4.57;;;2.78;;
9597;SDS011;4837;50.890;4.724;2023-07-31T15:19:15;4.07;;;2.42;;